Bloomington, IN

6:59 PM EDT on July 07, 2015 (GMT -0400)
Gentry Estates | | Change Station
CLOSE
Current Station
Personal Weather Station
Location: Bloomington, IN
Elevation: 0 ft
Nearby Weather Stations

Elev 0 ft 39.15 °N, 86.47 °W | Updated 31 seconds ago

Overcast
Overcast
69.4 °F
Feels Like 69.4 °F
N
1.3
Wind Variable Wind from NNE
Gusts 2.5 mph

Today
High -- | Low -- °F
--% Chance of Precip.
Yesterday
High -- | Low -- °F
Precip. -- in
6:26 AM 9:14 PM
Waning Gibbous, 60% visible
Pressure 29.96 in
Visibility 8.0 miles
Clouds Overcast 600 ft
Dew Point 57 °F
Humidity 65%
Rainfall 1.22 in
Snow Depth Not available.
UV 1.0 out of 12
Pollen .50 out of 12
Air Quality Not available.
Flu Activity Not available.
METAR KBMG 072253Z 36008KT 8SM -RA OVC006 21/19 A2998 RMK AO2 SLP145 P0001 T02060194

More Conditions Fewer Conditions

Pressure 29.96 in
Visibility 8.0 miles
Clouds Overcast 600 ft
Dew Point 57 °F
Humidity 65%
Rainfall 1.22 in
Snow Depth Not available.
UV 1.0 out of 12
Pollen .50 out of 12
Air Quality Not available.
Flu Activity Not available.
METAR KBMG 072253Z 36008KT 8SM -RA OVC006 21/19 A2998 RMK AO2 SLP145 P0001 T02060194

More Conditions Fewer Conditions

10-Day Weather Forecast

×

Almanac

Astronomy

Jul. 07, 2015 Rise Set
Actual Time
Civil Twilight
Nautical Twilight
Astronomical Twilight
Moon
Length of Visible Light
Length of Day
Tomorrow will be .
, % of the Moon is Illuminated

Today's Extremes

State Highs State Lows

Community

WunderPhotos

Upload Photos

1,835,941 photos uploaded!

WunderBlogs® & News

Nearby

Air Quality

  Air Quality AQ Index Pollutant
Not available.

Snow Depth

Station Depth Elevation

Earthquake Activity

City Distance Mag. Time & Date
Minimum magnitude displayed is 2.5.

Coastal Water Temperatures

Place Temperature

Stations

Nearby Weather Stations

Station Location Temp. Windchill Dew Point Humidity Wind Precip. Elev Updated Type